Ouray, Colorado
Current Conditions -  °F | °C
As of 6:35 PM on Wednesday 26 Nov 2014 (Local Time) from KTEX Reporting Station
Clear Clear  
Wind Chill: -1°   Ceiling: Unl
Heat Index: -1°   Visibility: 10mi
Dew Point: -4°   Wind: 3mph
Humidity: 82%   Direction: 120°ESE
Pressure: 30.5"   Gusts: NA
Location:  38.02°N, 107.67°W
Report Text: KTEX 270135Z AUTO 12003KT 10SM CLR M01/M04 A3050 RMK AO2 T10091036
Loading
Personal Weather Stations






























Interactive Weather Map New forecast layout! Learn more

10-Day Weather Forecast

Advertisements
Track Severe Weather on mobile